createdAt,value
2022-08-27T00:00:47.606Z,100228.00
2022-08-27T00:03:16.613Z,100229.00
2022-08-27T00:05:45.304Z,100228.00
2022-08-27T00:08:13.950Z,100232.00
2022-08-27T00:10:42.408Z,100239.00
2022-08-27T00:13:13.966Z,100233.00
2022-08-27T00:15:42.086Z,100241.00
2022-08-27T00:18:10.082Z,100244.00
2022-08-27T00:20:38.289Z,100240.00
2022-08-27T00:23:06.380Z,100239.00
2022-08-27T00:25:34.442Z,100235.00
2022-08-27T00:28:02.719Z,100235.00
2022-08-27T00:30:30.782Z,100242.00
2022-08-27T00:32:58.805Z,100237.00
2022-08-27T00:35:27.330Z,100240.00
2022-08-27T00:37:55.257Z,100238.00
2022-08-27T00:40:23.899Z,100236.00
2022-08-27T00:42:52.039Z,100238.00
2022-08-27T00:45:22.659Z,100239.00
2022-08-27T00:47:57.453Z,100243.00
2022-08-27T00:50:39.241Z,100240.00
2022-08-27T00:53:11.650Z,100238.00
2022-08-27T00:55:50.972Z,100233.00
2022-08-27T00:58:30.123Z,100234.00
2022-08-27T01:00:59.743Z,100241.00
2022-08-27T01:03:28.512Z,100234.00
2022-08-27T01:05:58.765Z,100239.00
2022-08-27T01:08:31.838Z,100233.00
2022-08-27T01:11:00.622Z,100234.00
2022-08-27T01:13:58.932Z,100237.00
2022-08-27T01:16:23.181Z,100227.00
2022-08-27T01:18:51.586Z,100226.00
2022-08-27T01:21:47.794Z,100228.00
2022-08-27T01:24:44.089Z,100231.00
2022-08-27T01:27:17.930Z,100235.00
2022-08-27T01:29:46.289Z,100236.00
2022-08-27T01:32:18.626Z,100226.00
2022-08-27T01:34:47.861Z,100231.00
2022-08-27T01:37:16.891Z,100234.00
2022-08-27T01:39:52.151Z,100229.00
2022-08-27T01:42:22.422Z,100236.00
2022-08-27T01:44:54.480Z,100238.00
2022-08-27T01:47:25.059Z,100231.00
2022-08-27T01:49:59.112Z,100239.00
2022-08-27T01:52:31.219Z,100236.00
2022-08-27T01:54:59.903Z,100228.00
2022-08-27T01:57:28.591Z,100229.00
2022-08-27T01:59:58.282Z,100238.00
2022-08-27T02:02:26.578Z,100239.00
2022-08-27T02:04:54.800Z,100236.00
2022-08-27T02:07:22.821Z,100235.00
2022-08-27T02:09:50.752Z,100237.00
2022-08-27T02:12:18.807Z,100233.00
2022-08-27T02:14:46.809Z,100240.00
2022-08-27T02:17:14.886Z,100235.00
2022-08-27T02:19:42.813Z,100234.00
2022-08-27T02:22:10.830Z,100242.00
2022-08-27T02:24:38.901Z,100253.00
2022-08-27T02:27:07.027Z,100256.00
2022-08-27T02:29:35.503Z,100258.00
2022-08-27T02:32:03.653Z,100262.00
2022-08-27T02:34:31.785Z,100258.00
2022-08-27T02:37:02.823Z,100258.00
2022-08-27T02:39:30.728Z,100253.00
2022-08-27T02:41:59.005Z,100254.00
2022-08-27T02:44:27.226Z,100261.00
2022-08-27T02:46:55.424Z,100257.00
2022-08-27T02:49:23.430Z,100260.00
2022-08-27T02:51:55.682Z,100253.00
2022-08-27T02:54:25.045Z,100258.00
2022-08-27T02:56:55.383Z,100254.00
2022-08-27T02:59:23.814Z,100250.00
2022-08-27T03:01:52.042Z,100248.00
2022-08-27T03:04:20.198Z,100249.00
2022-08-27T03:06:48.698Z,100254.00
2022-08-27T03:09:16.743Z,100254.00
2022-08-27T03:11:44.797Z,100258.00
2022-08-27T03:14:13.106Z,100257.00
2022-08-27T03:16:41.428Z,100260.00
2022-08-27T03:19:09.589Z,100261.00
2022-08-27T03:21:38.302Z,100251.00
2022-08-27T03:24:09.358Z,100256.00
2022-08-27T03:26:39.710Z,100254.00
2022-08-27T03:29:11.401Z,100251.00
2022-08-27T03:31:39.318Z,100246.00
2022-08-27T03:34:09.594Z,100254.00
2022-08-27T03:36:37.907Z,100251.00
2022-08-27T03:39:05.798Z,100255.00
2022-08-27T03:41:40.037Z,100250.00
2022-08-27T03:44:22.172Z,100248.00
2022-08-27T03:46:51.483Z,100242.00
2022-08-27T03:49:21.349Z,100250.00
2022-08-27T03:51:53.526Z,100250.00
2022-08-27T03:54:21.419Z,100248.00
2022-08-27T03:56:49.279Z,100255.00
2022-08-27T03:59:17.360Z,100250.00
2022-08-27T04:01:46.155Z,100245.00
2022-08-27T04:04:14.239Z,100247.00
2022-08-27T04:06:42.319Z,100238.00
2022-08-27T04:09:10.202Z,100238.00
2022-08-27T04:11:37.963Z,100238.00
2022-08-27T04:14:07.609Z,100235.00
2022-08-27T04:16:48.933Z,100241.00
2022-08-27T04:19:22.905Z,100244.00
2022-08-27T04:21:54.367Z,100241.00
2022-08-27T04:24:22.299Z,100237.00
2022-08-27T04:26:50.380Z,100237.00
2022-08-27T04:29:18.285Z,100239.00
2022-08-27T04:31:46.282Z,100243.00
2022-08-27T04:34:17.786Z,100241.00
2022-08-27T04:36:46.455Z,100252.00
2022-08-27T04:39:15.334Z,100251.00
2022-08-27T04:41:43.455Z,100242.00
2022-08-27T04:44:12.730Z,100247.00
2022-08-27T04:46:43.046Z,100243.00
2022-08-27T04:49:18.070Z,100249.00
2022-08-27T04:51:47.722Z,100252.00
2022-08-27T04:54:16.258Z,100250.00
2022-08-27T04:56:45.163Z,100253.00
2022-08-27T04:59:13.689Z,100254.00
2022-08-27T05:01:42.541Z,100252.00
2022-08-27T05:04:12.875Z,100251.00
2022-08-27T05:06:40.926Z,100254.00
2022-08-27T05:09:09.021Z,100250.00
2022-08-27T05:11:37.369Z,100259.00
2022-08-27T05:14:07.833Z,100263.00
2022-08-27T05:16:36.805Z,100269.00
2022-08-27T05:19:08.865Z,100267.00
2022-08-27T05:21:38.931Z,100264.00
2022-08-27T05:24:08.766Z,100265.00
2022-08-27T05:26:37.130Z,100266.00
2022-08-27T05:29:06.608Z,100269.00
2022-08-27T05:31:35.241Z,100272.00
2022-08-27T05:34:10.197Z,100263.00
2022-08-27T05:36:47.937Z,100268.00
2022-08-27T05:39:17.403Z,100272.00
2022-08-27T05:41:45.528Z,100272.00
2022-08-27T05:44:39.739Z,100266.00
2022-08-27T05:47:01.487Z,100262.00
2022-08-27T05:49:28.948Z,100266.00
2022-08-27T05:51:56.671Z,100267.00
2022-08-27T05:54:24.374Z,100260.00
2022-08-27T05:56:51.999Z,100264.00
2022-08-27T05:59:38.017Z,100263.00
2022-08-27T06:02:06.390Z,100259.00
2022-08-27T06:04:34.591Z,100256.00
2022-08-27T06:07:02.143Z,100265.00
2022-08-27T06:09:30.836Z,100261.00
2022-08-27T06:12:00.730Z,100269.00
2022-08-27T06:14:28.774Z,100262.00
2022-08-27T06:16:56.683Z,100265.00
2022-08-27T06:19:24.577Z,100268.00
2022-08-27T06:22:01.014Z,100270.00
2022-08-27T06:24:40.149Z,100272.00
2022-08-27T06:27:10.745Z,100272.00
2022-08-27T06:29:38.802Z,100268.00
2022-08-27T06:32:06.965Z,100269.00
2022-08-27T06:34:34.666Z,100272.00
2022-08-27T06:37:02.656Z,100275.00
2022-08-27T06:39:30.948Z,100276.00
2022-08-27T06:41:59.846Z,100278.00
2022-08-27T06:44:34.164Z,100277.00
2022-08-27T06:47:03.938Z,100286.00
2022-08-27T06:49:32.970Z,100286.00
2022-08-27T06:52:00.680Z,100281.00
2022-08-27T06:54:28.415Z,100287.00
2022-08-27T06:57:00.793Z,100286.00
2022-08-27T06:59:28.594Z,100286.00
2022-08-27T07:01:56.565Z,100290.00
2022-08-27T07:04:32.751Z,100290.00
2022-08-27T07:07:02.630Z,100294.00
2022-08-27T07:09:33.968Z,100295.00
2022-08-27T07:12:02.598Z,100298.00
2022-08-27T07:14:34.238Z,100297.00
2022-08-27T07:17:07.796Z,100302.00
2022-08-27T07:19:40.847Z,100296.00
2022-08-27T07:22:09.491Z,100296.00
2022-08-27T07:24:38.380Z,100306.00
2022-08-27T07:27:07.224Z,100305.00
2022-08-27T07:29:34.922Z,100306.00
2022-08-27T07:32:02.581Z,100315.00
2022-08-27T07:34:30.219Z,100308.00
2022-08-27T07:36:57.885Z,100313.00
2022-08-27T07:39:25.368Z,100315.00
2022-08-27T07:42:15.215Z,100308.00
2022-08-27T07:44:42.831Z,100319.00
2022-08-27T07:47:10.422Z,100310.00
2022-08-27T07:49:38.176Z,100318.00
2022-08-27T07:52:05.827Z,100317.00
2022-08-27T07:54:33.536Z,100325.00
2022-08-27T07:57:01.185Z,100323.00
2022-08-27T07:59:29.024Z,100330.00
2022-08-27T08:01:58.165Z,100332.00
2022-08-27T08:04:27.896Z,100334.00
2022-08-27T08:06:56.553Z,100336.00
2022-08-27T08:09:25.385Z,100331.00
2022-08-27T08:11:54.347Z,100338.00
2022-08-27T08:14:22.855Z,100339.00
2022-08-27T08:16:50.814Z,100339.00
2022-08-27T08:19:18.817Z,100338.00
2022-08-27T08:21:46.534Z,100343.00
2022-08-27T08:24:14.169Z,100343.00
2022-08-27T08:26:42.392Z,100349.00
2022-08-27T08:29:13.372Z,100344.00
2022-08-27T08:31:49.892Z,100359.00
2022-08-27T08:34:19.966Z,100359.00
2022-08-27T08:36:53.919Z,100360.00
2022-08-27T08:39:24.644Z,100363.00
2022-08-27T08:42:04.828Z,100367.00
2022-08-27T08:44:45.587Z,100357.00
2022-08-27T08:47:49.077Z,100359.00
2022-08-27T08:50:27.100Z,100363.00
2022-08-27T08:53:08.757Z,100360.00
2022-08-27T08:55:56.299Z,100359.00
2022-08-27T08:59:09.767Z,100360.00
2022-08-27T09:01:37.607Z,100353.00
2022-08-27T09:04:10.119Z,100355.00
2022-08-27T09:06:48.875Z,100356.00
2022-08-27T09:09:31.946Z,100360.00
2022-08-27T09:12:19.632Z,100359.00
2022-08-27T09:14:53.980Z,100369.00
2022-08-27T09:17:21.831Z,100373.00
2022-08-27T09:19:52.317Z,100372.00
2022-08-27T09:22:42.151Z,100364.00
2022-08-27T09:25:35.716Z,100367.00
2022-08-27T09:28:32.472Z,100359.00
2022-08-27T09:31:17.585Z,100365.00
2022-08-27T09:33:56.142Z,100366.00
2022-08-27T09:36:25.564Z,100358.00
2022-08-27T09:39:07.105Z,100358.00
2022-08-27T09:41:46.774Z,100367.00
2022-08-27T09:44:19.656Z,100362.00
2022-08-27T09:47:04.064Z,100361.00
2022-08-27T09:49:34.875Z,100363.00
2022-08-27T09:52:03.071Z,100360.00
2022-08-27T09:54:48.832Z,100357.00
2022-08-27T09:57:38.774Z,100353.00
2022-08-27T10:00:15.182Z,100361.00
2022-08-27T10:02:55.236Z,100358.00
2022-08-27T10:05:40.354Z,100358.00
2022-08-27T10:08:51.408Z,100363.00
2022-08-27T10:11:29.968Z,100363.00
2022-08-27T10:14:14.323Z,100358.00
2022-08-27T10:17:07.266Z,100362.00
2022-08-27T10:20:05.222Z,100363.00
2022-08-27T10:23:24.671Z,100360.00
2022-08-27T10:26:12.615Z,100369.00
2022-08-27T10:29:11.038Z,100364.00
2022-08-27T10:31:57.164Z,100364.00
2022-08-27T10:34:43.498Z,100365.00
2022-08-27T10:37:44.254Z,100370.00
2022-08-27T10:40:18.366Z,100369.00
2022-08-27T10:42:49.048Z,100370.00
2022-08-27T10:45:53.885Z,100370.00
2022-08-27T10:48:38.404Z,100373.00
2022-08-27T10:51:29.739Z,100368.00
2022-08-27T10:54:46.877Z,100371.00
2022-08-27T10:57:45.454Z,100368.00
2022-08-27T11:00:22.818Z,100376.00
2022-08-27T11:03:03.342Z,100379.00
2022-08-27T11:05:47.451Z,100383.00
2022-08-27T11:08:23.993Z,100370.00
2022-08-27T11:11:57.483Z,100385.00
2022-08-27T11:14:59.556Z,100387.00
2022-08-27T11:17:51.708Z,100377.00
2022-08-27T11:20:46.088Z,100386.00
2022-08-27T11:23:19.183Z,100390.00
2022-08-27T11:26:01.573Z,100392.00
2022-08-27T11:28:55.997Z,100401.00
2022-08-27T11:31:29.765Z,100398.00
2022-08-27T11:34:15.811Z,100395.00
2022-08-27T11:37:10.072Z,100394.00
2022-08-27T11:40:04.289Z,100399.00
2022-08-27T11:42:50.633Z,100397.00
2022-08-27T11:45:28.835Z,100397.00
2022-08-27T11:48:01.369Z,100396.00
2022-08-27T11:50:31.692Z,100398.00
2022-08-27T11:53:07.625Z,100396.00
2022-08-27T11:55:40.138Z,100404.00
2022-08-27T11:58:11.714Z,100400.00
2022-08-27T12:00:42.419Z,100408.00
2022-08-27T12:03:28.993Z,100403.00
2022-08-27T12:05:56.547Z,100401.00
2022-08-27T12:08:30.004Z,100402.00
2022-08-27T12:11:39.025Z,100398.00
2022-08-27T12:14:22.339Z,100402.00
2022-08-27T12:17:22.624Z,100400.00
2022-08-27T12:20:20.278Z,100405.00
2022-08-27T12:23:40.577Z,100408.00
2022-08-27T12:26:36.172Z,100405.00
2022-08-27T12:29:37.110Z,100404.00
2022-08-27T12:32:25.463Z,100403.00
2022-08-27T12:35:08.647Z,100404.00
2022-08-27T12:37:56.879Z,100402.00
2022-08-27T12:40:31.535Z,100404.00
2022-08-27T12:43:29.892Z,100399.00
2022-08-27T12:46:01.429Z,100403.00
2022-08-27T12:48:34.860Z,100401.00
2022-08-27T12:51:14.878Z,100401.00
2022-08-27T12:53:43.880Z,100405.00
2022-08-27T12:56:37.522Z,100393.00
2022-08-27T12:59:47.720Z,100390.00
2022-08-27T13:02:59.378Z,100396.00
2022-08-27T13:05:27.497Z,100392.00
2022-08-27T13:07:55.649Z,100394.00
2022-08-27T13:10:31.553Z,100400.00
2022-08-27T13:13:10.552Z,100394.00
2022-08-27T13:15:48.131Z,100390.00
2022-08-27T13:18:17.525Z,100399.00
2022-08-27T13:20:50.438Z,100393.00
2022-08-27T13:23:24.266Z,100397.00
2022-08-27T13:26:10.620Z,100399.00
2022-08-27T13:28:41.866Z,100395.00
2022-08-27T13:31:11.418Z,100389.00
2022-08-27T13:33:41.642Z,100388.00
2022-08-27T13:36:10.643Z,100387.00
2022-08-27T13:38:49.754Z,100389.00
2022-08-27T13:41:47.430Z,100391.00
2022-08-27T13:44:27.838Z,100395.00
2022-08-27T13:47:09.578Z,100393.00
2022-08-27T13:49:40.130Z,100397.00
2022-08-27T13:52:25.722Z,100394.00
2022-08-27T13:55:10.780Z,100388.00
2022-08-27T13:57:48.930Z,100385.00
2022-08-27T14:00:38.114Z,100389.00
2022-08-27T14:03:50.503Z,100387.00
2022-08-27T14:06:46.538Z,100390.00
2022-08-27T14:09:29.746Z,100386.00
2022-08-27T14:12:02.388Z,100392.00
2022-08-27T14:14:32.007Z,100387.00
2022-08-27T14:17:02.305Z,100386.00
2022-08-27T14:19:36.511Z,100390.00
2022-08-27T14:22:05.413Z,100384.00
2022-08-27T14:24:33.021Z,100390.00
2022-08-27T14:27:10.975Z,100384.00
2022-08-27T14:29:38.538Z,100395.00
2022-08-27T14:32:08.063Z,100387.00
2022-08-27T14:34:36.470Z,100393.00
2022-08-27T14:37:04.915Z,100391.00
2022-08-27T14:39:32.905Z,100390.00
2022-08-27T14:42:01.800Z,100388.00
2022-08-27T14:44:29.822Z,100380.00
2022-08-27T14:46:58.958Z,100381.00
2022-08-27T14:49:40.567Z,100381.00
2022-08-27T14:52:08.971Z,100382.00
2022-08-27T14:54:37.045Z,100378.00
2022-08-27T14:57:06.486Z,100387.00
2022-08-27T14:59:34.894Z,100383.00
2022-08-27T15:02:07.399Z,100390.00
2022-08-27T15:04:35.164Z,100392.00
2022-08-27T15:07:04.467Z,100386.00
2022-08-27T15:09:32.462Z,100391.00
2022-08-27T15:12:00.581Z,100399.00
2022-08-27T15:14:34.656Z,100398.00
2022-08-27T15:17:02.776Z,100391.00
2022-08-27T15:19:50.350Z,100392.00
2022-08-27T15:22:22.237Z,100391.00
2022-08-27T15:24:57.348Z,100396.00
2022-08-27T15:27:32.041Z,100396.00
2022-08-27T15:30:16.178Z,100395.00
2022-08-27T15:32:49.035Z,100392.00
2022-08-27T15:35:23.182Z,100395.00
2022-08-27T15:37:50.867Z,100393.00
2022-08-27T15:40:20.303Z,100397.00
2022-08-27T15:42:58.665Z,100393.00
2022-08-27T15:45:27.712Z,100396.00
2022-08-27T15:47:57.238Z,100393.00
2022-08-27T15:50:26.495Z,100393.00
2022-08-27T15:53:01.082Z,100400.00
2022-08-27T15:55:33.758Z,100396.00
2022-08-27T15:58:01.827Z,100405.00
2022-08-27T16:00:33.925Z,100401.00
2022-08-27T16:03:06.222Z,100397.00
2022-08-27T16:05:37.518Z,100409.00
2022-08-27T16:08:05.815Z,100404.00
2022-08-27T16:10:33.878Z,100407.00
2022-08-27T16:13:01.925Z,100399.00
2022-08-27T16:15:31.749Z,100402.00
2022-08-27T16:18:01.689Z,100393.00
2022-08-27T16:20:29.245Z,100398.00
2022-08-27T16:22:56.771Z,100403.00
2022-08-27T16:25:24.195Z,100410.00
2022-08-27T16:27:54.016Z,100403.00
2022-08-27T16:30:22.979Z,100405.00
2022-08-27T16:32:57.753Z,100407.00
2022-08-27T16:35:25.379Z,100407.00
2022-08-27T16:37:53.030Z,100411.00
2022-08-27T16:40:24.076Z,100417.00
2022-08-27T16:42:52.437Z,100420.00
2022-08-27T16:45:23.672Z,100415.00
2022-08-27T16:48:09.997Z,100413.00
2022-08-27T16:50:38.601Z,100415.00
2022-08-27T16:53:14.985Z,100411.00
2022-08-27T16:55:45.005Z,100414.00
2022-08-27T16:58:28.745Z,100410.00
2022-08-27T17:01:03.374Z,100410.00
2022-08-27T17:03:31.207Z,100415.00
2022-08-27T17:05:59.226Z,100410.00
2022-08-27T17:08:27.797Z,100403.00
2022-08-27T17:10:57.456Z,100404.00
2022-08-27T17:13:33.039Z,100414.00
2022-08-27T17:16:01.929Z,100420.00
2022-08-27T17:18:29.721Z,100408.00
2022-08-27T17:21:01.252Z,100414.00
2022-08-27T17:23:40.988Z,100420.00
2022-08-27T17:26:11.912Z,100420.00
2022-08-27T17:28:41.046Z,100424.00
2022-08-27T17:31:28.063Z,100425.00
2022-08-27T17:33:59.402Z,100421.00
2022-08-27T17:36:30.060Z,100432.00
2022-08-27T17:38:58.875Z,100432.00
2022-08-27T17:41:39.837Z,100431.00
2022-08-27T17:44:19.525Z,100439.00
2022-08-27T17:46:48.081Z,100435.00
2022-08-27T17:49:16.994Z,100438.00
2022-08-27T17:51:48.256Z,100438.00
2022-08-27T17:54:44.526Z,100444.00
2022-08-27T17:57:24.033Z,100449.00
2022-08-27T17:59:53.884Z,100447.00
2022-08-27T18:02:32.298Z,100451.00
2022-08-27T18:04:59.870Z,100458.00
2022-08-27T18:07:27.743Z,100460.00
2022-08-27T18:09:55.728Z,100469.00
2022-08-27T18:12:26.144Z,100471.00
2022-08-27T18:15:26.529Z,100463.00
2022-08-27T18:17:54.838Z,100466.00
2022-08-27T18:20:27.169Z,100455.00
2022-08-27T18:22:55.811Z,100462.00
2022-08-27T18:25:27.093Z,100469.00
2022-08-27T18:27:59.217Z,100471.00
2022-08-27T18:30:26.732Z,100474.00
2022-08-27T18:32:54.349Z,100476.00
2022-08-27T18:35:32.478Z,100479.00
2022-08-27T18:38:00.411Z,100482.00
2022-08-27T18:40:35.682Z,100490.00
2022-08-27T18:43:05.176Z,100487.00
2022-08-27T18:45:34.902Z,100489.00
2022-08-27T18:48:02.983Z,100478.00
2022-08-27T18:50:30.614Z,100486.00
2022-08-27T18:52:58.373Z,100487.00
2022-08-27T18:55:28.977Z,100490.00
2022-08-27T18:57:56.297Z,100501.00
2022-08-27T19:00:25.384Z,100494.00
2022-08-27T19:02:53.749Z,100501.00
2022-08-27T19:05:27.497Z,100507.00
2022-08-27T19:07:57.098Z,100503.00
2022-08-27T19:10:25.495Z,100499.00
2022-08-27T19:12:53.231Z,100501.00
2022-08-27T19:15:21.293Z,100506.00
2022-08-27T19:17:54.324Z,100500.00
2022-08-27T19:20:22.080Z,100510.00
2022-08-27T19:22:49.910Z,100513.00
2022-08-27T19:25:18.067Z,100512.00
2022-08-27T19:27:47.153Z,100507.00
2022-08-27T19:30:17.356Z,100514.00
2022-08-27T19:32:45.205Z,100508.00
2022-08-27T19:35:13.244Z,100515.00
2022-08-27T19:37:52.593Z,100517.00
2022-08-27T19:40:22.667Z,100512.00
2022-08-27T19:42:50.706Z,100518.00
2022-08-27T19:45:23.265Z,100524.00
2022-08-27T19:47:53.313Z,100516.00
2022-08-27T19:50:22.623Z,100512.00
2022-08-27T19:52:51.597Z,100510.00
2022-08-27T19:55:20.232Z,100515.00
2022-08-27T19:57:48.326Z,100508.00
2022-08-27T20:00:19.650Z,100514.00
2022-08-27T20:02:47.502Z,100518.00
2022-08-27T20:05:20.726Z,100522.00
2022-08-27T20:07:53.191Z,100520.00
2022-08-27T20:10:31.819Z,100519.00
2022-08-27T20:13:06.275Z,100515.00
2022-08-27T20:15:36.033Z,100520.00
2022-08-27T20:18:06.810Z,100525.00
2022-08-27T20:20:37.228Z,100520.00
2022-08-27T20:23:05.443Z,100528.00
2022-08-27T20:25:35.503Z,100525.00
2022-08-27T20:28:21.925Z,100527.00
2022-08-27T20:30:51.889Z,100537.00
2022-08-27T20:33:19.479Z,100538.00
2022-08-27T20:35:47.015Z,100532.00
2022-08-27T20:38:14.837Z,100544.00
2022-08-27T20:40:43.050Z,100543.00
2022-08-27T20:43:10.595Z,100536.00
2022-08-27T20:45:39.216Z,100538.00
2022-08-27T20:48:06.786Z,100542.00
2022-08-27T20:50:35.073Z,100538.00
2022-08-27T20:53:03.001Z,100539.00
2022-08-27T20:55:30.612Z,100543.00
2022-08-27T20:58:16.882Z,100544.00
2022-08-27T21:00:44.750Z,100545.00
2022-08-27T21:03:14.361Z,100545.00
2022-08-27T21:05:43.854Z,100547.00
2022-08-27T21:08:11.650Z,100545.00
2022-08-27T21:10:50.909Z,100544.00
2022-08-27T21:13:20.580Z,100546.00
2022-08-27T21:15:56.386Z,100552.00
2022-08-27T21:18:29.504Z,100553.00
2022-08-27T21:21:00.473Z,100552.00
2022-08-27T21:23:29.656Z,100558.00
2022-08-27T21:26:07.681Z,100552.00
2022-08-27T21:28:35.464Z,100549.00
2022-08-27T21:31:03.173Z,100549.00
2022-08-27T21:33:31.128Z,100554.00
2022-08-27T21:35:58.794Z,100551.00
2022-08-27T21:38:27.593Z,100551.00
2022-08-27T21:40:56.138Z,100557.00
2022-08-27T21:43:25.518Z,100550.00
2022-08-27T21:45:58.882Z,100548.00
2022-08-27T21:48:28.956Z,100564.00
2022-08-27T21:50:57.110Z,100557.00
2022-08-27T21:53:25.332Z,100559.00
2022-08-27T21:55:54.508Z,100559.00
2022-08-27T21:58:26.408Z,100560.00
2022-08-27T22:00:54.991Z,100556.00
2022-08-27T22:03:25.326Z,100557.00
2022-08-27T22:05:53.551Z,100560.00
2022-08-27T22:08:22.779Z,100565.00
2022-08-27T22:10:55.391Z,100562.00
2022-08-27T22:13:23.556Z,100557.00
2022-08-27T22:15:51.704Z,100571.00
2022-08-27T22:18:19.727Z,100572.00
2022-08-27T22:20:51.035Z,100572.00
2022-08-27T22:23:19.022Z,100574.00
2022-08-27T22:25:46.795Z,100564.00
2022-08-27T22:28:15.659Z,100562.00
2022-08-27T22:30:45.728Z,100572.00
2022-08-27T22:33:16.113Z,100572.00
2022-08-27T22:35:47.059Z,100570.00
2022-08-27T22:38:15.416Z,100568.00
2022-08-27T22:40:43.389Z,100561.00
2022-08-27T22:43:12.203Z,100562.00
2022-08-27T22:45:41.279Z,100573.00
2022-08-27T22:48:12.786Z,100578.00
2022-08-27T22:50:40.678Z,100575.00
2022-08-27T22:53:08.892Z,100575.00
2022-08-27T22:55:37.155Z,100571.00
2022-08-27T22:58:05.352Z,100573.00
2022-08-27T23:00:37.224Z,100569.00
2022-08-27T23:03:09.347Z,100577.00
2022-08-27T23:05:40.374Z,100573.00
2022-08-27T23:08:12.525Z,100570.00
2022-08-27T23:10:42.078Z,100575.00
2022-08-27T23:13:11.085Z,100576.00
2022-08-27T23:15:39.894Z,100575.00
2022-08-27T23:18:09.101Z,100579.00
2022-08-27T23:20:36.853Z,100580.00
2022-08-27T23:23:04.516Z,100573.00
2022-08-27T23:25:52.250Z,100582.00
2022-08-27T23:28:20.832Z,100569.00
2022-08-27T23:30:48.927Z,100583.00
2022-08-27T23:33:17.055Z,100576.00
2022-08-27T23:35:48.360Z,100580.00
2022-08-27T23:38:18.349Z,100579.00
2022-08-27T23:40:47.717Z,100576.00
2022-08-27T23:43:17.729Z,100581.00
2022-08-27T23:45:46.226Z,100581.00
2022-08-27T23:48:14.707Z,100581.00
2022-08-27T23:50:43.373Z,100582.00
2022-08-27T23:53:14.345Z,100588.00
2022-08-27T23:55:43.094Z,100570.00
2022-08-27T23:58:11.825Z,100578.00
